Aviation Digital Data Service (ADDS)

Output produced by METARs form (1407 UTC 22 April 2019)
found at http://www.aviationweather.gov/metar/data/
 
Forecast for: LIED (DECIMOMANNU(IT-A, IT)
Text: TAF LIED 220500Z 2206/2215 12017KT 9999 FEW020 BKN025
Forecast period: 0600 to 1500 UTC 22 April 2019
Forecast type: FROM: standard forecast or significant change
Winds: from the ESE (120 degrees) at 20 MPH (17 knots; 8.7 m/s)
Visibility: 6 or more miles 10+ km)
Ceiling: 2500 feet AGL
Clouds: few clouds at 2000 feet AGL
broken clouds at 2500 feet AGL
Weather: no significant weather forecast for this period
Text: TEMPO 2206/2212 12022G32KT
Forecast period: 0600 to 1200 UTC 22 April 2019
Forecast type: TEMPORARY: The following changes expected for less than half the time period
Winds: from the ESE (120 degrees) at 25 MPH (22 knots; 11.3 m/s)
gusting to 37 MPH (32 knots; 16.5 m/s)
Visibility: missing
Ceiling: unknown
Clouds: missing
Weather: no significant weather forecast for this period